Time;durP1;ratioP1;P1;durP2;ratioP2;P2;SDS_P1;SDS_P2;PMS_P1;PMS_P2;Temp;Humidity;BMP_temperature;BMP_pressure;BME280_temperature;BME280_humidity;BME280_pressure;Samples;Min_cycle;Max_cycle;Signal;HPM_P1;HPM_P2
2021/04/28 00:00:31;;;;;;;23.38;14.58;;;;;;;2.49;71.02;101520.12;1811500;78;25646;-57
2021/04/28 00:03:05;;;;;;;24.10;14.18;;;;;;;2.53;71.22;101526.64;1745233;81;25740;-57
2021/04/28 00:05:33;;;;;;;31.93;14.58;;;;;;;2.57;71.44;101523.80;1744871;81;27533;-57
2021/04/28 00:08:02;;;;;;;23.57;14.87;;;;;;;2.59;71.17;101523.72;1756885;81;26166;-57
2021/04/28 00:10:36;;;;;;;20.17;13.80;;;;;;;2.59;71.33;101532.57;1812424;77;26281;-57
2021/04/28 00:13:05;;;;;;;24.07;16.17;;;;;;;2.57;71.08;101523.80;1777612;80;25653;-57
2021/04/28 00:15:37;;;;;;;24.87;14.80;;;;;;;2.54;70.90;101528.37;1790098;80;26075;-57
2021/04/28 00:18:05;;;;;;;25.52;15.80;;;;;;;2.52;70.70;101523.59;1846519;77;27521;-57
2021/04/28 00:20:39;;;;;;;30.82;14.98;;;;;;;2.47;70.59;101533.92;1777544;80;25724;-57
2021/04/28 00:23:04;;;;;;;27.10;14.58;;;;;;;2.41;70.40;101538.18;1789589;80;25786;-57
2021/04/28 00:25:36;;;;;;;23.65;15.20;;;;;;;2.31;70.05;101524.88;1844811;77;26414;-57
2021/04/28 00:28:05;;;;;;;26.42;15.55;;;;;;;2.21;70.02;101529.73;1846592;77;25758;-57
2021/04/28 00:30:34;;;;;;;25.43;15.15;;;;;;;2.15;70.14;101523.35;1846600;77;27517;-57
2021/04/28 00:33:02;;;;;;;28.42;16.20;;;;;;;2.10;70.41;101517.36;1777540;79;25674;-56
2021/04/28 00:35:31;;;;;;;23.83;15.48;;;;;;;2.05;70.43;101520.20;1790145;80;25527;-57
2021/04/28 00:37:59;;;;;;;25.57;15.90;;;;;;;2.05;70.77;101521.52;1777561;80;26430;-56
2021/04/28 00:40:35;;;;;;;28.87;15.72;;;;;;;2.07;71.06;101513.04;1790105;80;25750;-57
2021/04/28 00:43:03;;;;;;;26.70;16.27;;;;;;;2.09;71.44;101524.91;1729513;82;26879;-57
2021/04/28 00:45:35;;;;;;;27.17;15.85;;;;;;;2.10;71.79;101539.47;1784509;79;26249;-58
2021/04/28 00:48:07;;;;;;;25.85;14.63;;;;;;;2.12;72.16;101538.92;1784906;79;25450;-57
2021/04/28 00:50:40;;;;;;;28.67;15.93;;;;;;;2.10;72.19;101526.20;1792744;79;25731;-58
2021/04/28 00:53:12;;;;;;;26.30;15.10;;;;;;;2.10;72.19;101526.20;1801154;79;25753;-57
2021/04/28 00:55:40;;;;;;;29.50;15.13;;;;;;;2.20;72.10;101537.29;1801296;79;26716;-57
2021/04/28 00:58:09;;;;;;;21.80;14.98;;;;;;;2.22;72.17;101532.78;1800900;79;26050;-58
2021/04/28 01:00:39;;;;;;;25.05;15.03;;;;;;;2.25;72.13;101538.42;1778495;79;25632;-58
2021/04/28 01:03:07;;;;;;;21.05;13.72;;;;;;;2.30;72.48;101544.39;1804387;79;26437;-58
2021/04/28 01:05:36;;;;;;;20.37;13.53;;;;;;;2.32;72.04;101538.56;1806317;78;26267;-58
2021/04/28 01:08:06;;;;;;;22.45;13.85;;;;;;;2.34;72.07;101540.22;1812518;78;27524;-58
2021/04/28 01:10:36;;;;;;;21.97;14.45;;;;;;;2.39;72.20;101539.18;1812898;78;26143;-58
2021/04/28 01:13:06;;;;;;;26.45;14.68;;;;;;;2.41;72.61;101542.64;1820060;78;25687;-58
2021/04/28 01:15:35;;;;;;;22.58;14.58;;;;;;;2.39;71.97;101537.85;1820373;78;25642;-57
2021/04/28 01:18:06;;;;;;;24.32;14.98;;;;;;;2.42;72.16;101525.30;1819437;77;26273;-57
2021/04/28 01:20:39;;;;;;;20.30;14.33;;;;;;;2.45;72.17;101522.53;1820216;78;27510;-57
2021/04/28 01:23:11;;;;;;;22.07;15.08;;;;;;;2.49;71.88;101530.75;1819984;78;25696;-57
2021/04/28 01:25:40;;;;;;;21.10;15.28;;;;;;;2.50;71.70;101521.86;1820300;78;25437;-57
2021/04/28 01:28:21;;;;;;;25.88;17.48;;;;;;;2.48;71.24;101522.38;1820347;78;25972;-58
2021/04/28 01:31:05;;;;;;;28.90;15.65;;;;;;;2.44;71.10;101518.14;1820375;77;25712;-57
2021/04/28 01:33:41;;;;;;;24.02;16.12;;;;;;;2.41;70.91;101510.30;1820192;78;27521;-58
2021/04/28 01:36:17;;;;;;;22.62;15.90;;;;;;;2.35;70.78;101500.80;1820278;78;26146;-58
2021/04/28 01:38:50;;;;;;;22.75;15.55;;;;;;;2.30;70.58;101508.11;1791545;78;25674;-57
2021/04/28 01:41:21;;;;;;;23.62;14.93;;;;;;;2.25;70.77;101510.07;1788677;78;25674;-57
2021/04/28 01:43:49;;;;;;;21.17;14.60;;;;;;;2.22;70.86;101521.28;1787940;79;25835;-57
2021/04/28 01:46:20;;;;;;;24.20;15.45;;;;;;;2.18;71.43;101513.91;1815414;77;27522;-57
2021/04/28 01:48:48;;;;;;;27.05;14.55;;;;;;;2.13;71.06;101508.80;1819429;77;25712;-57
2021/04/28 01:51:17;;;;;;;22.95;15.13;;;;;;;2.10;71.38;101507.62;1817220;77;25697;-57
2021/04/28 01:53:46;;;;;;;20.27;12.90;;;;;;;2.07;71.38;101495.79;1770665;80;25545;-58
2021/04/28 01:56:16;;;;;;;20.75;13.98;;;;;;;2.07;71.72;101489.16;1768734;79;25639;-58
2021/04/28 01:58:46;;;;;;;21.75;14.87;;;;;;;2.11;71.96;101493.87;1754657;79;29594;-57
2021/04/28 02:01:24;;;;;;;19.15;13.90;;;;;;;2.14;72.32;101497.73;1760283;81;25746;-57
2021/04/28 02:03:54;;;;;;;24.72;13.53;;;;;;;2.14;72.32;101504.37;1767024;81;25714;-57
2021/04/28 02:06:23;;;;;;;20.60;13.72;;;;;;;2.17;72.30;101501.12;1767213;81;26304;-57
2021/04/28 02:08:51;;;;;;;21.60;14.20;;;;;;;2.22;72.33;101504.03;1766082;80;25759;-58
2021/04/28 02:11:19;;;;;;;19.35;13.75;;;;;;;2.27;72.35;101500.26;1744549;80;27526;-57
2021/04/28 02:13:50;;;;;;;19.02;12.60;;;;;;;2.35;72.30;101501.27;1736698;82;25458;-58
2021/04/28 02:16:25;;;;;;;21.02;14.30;;;;;;;2.38;72.15;101489.17;1733881;82;25672;-57
2021/04/28 02:18:54;;;;;;;22.67;15.75;;;;;;;2.42;72.14;101485.95;1736721;82;25667;-57
2021/04/28 02:21:23;;;;;;;19.75;12.68;;;;;;;2.37;71.70;101490.58;1745197;81;25679;-57
2021/04/28 02:24:00;;;;;;;22.80;14.10;;;;;;;2.35;71.75;101490.17;1764541;81;27640;-57
2021/04/28 02:26:29;;;;;;;21.00;14.00;;;;;;;2.41;71.95;101493.03;1812949;79;25590;-57
2021/04/28 02:28:58;;;;;;;20.70;14.43;;;;;;;2.42;71.75;101489.45;1813890;77;26356;-57
2021/04/28 02:31:26;;;;;;;26.42;15.80;;;;;;;2.41;71.54;101484.22;1777288;80;25668;-58
2021/04/28 02:33:56;;;;;;;21.12;15.70;;;;;;;2.41;71.45;101473.12;1781733;80;27527;-58
2021/04/28 02:36:26;;;;;;;26.70;15.72;;;;;;;2.37;71.18;101480.84;1782138;79;27603;-57
2021/04/28 02:39:00;;;;;;;24.15;15.05;;;;;;;2.35;71.24;101486.19;1781385;79;25946;-58
2021/04/28 02:41:30;;;;;;;19.50;14.63;;;;;;;2.29;71.09;101483.80;1787372;79;25626;-57
2021/04/28 02:44:01;;;;;;;18.05;13.38;;;;;;;2.27;71.06;101499.41;1784090;77;25772;-57
2021/04/28 02:46:33;;;;;;;;;;;;;;;2.24;71.17;101501.70;1808002;78;26070;-58
2021/04/28 02:49:03;;;;;;;26.40;14.75;;;;;;;2.21;71.16;101495.66;1806114;78;27515;-58
2021/04/28 02:51:38;;;;;;;20.32;15.25;;;;;;;2.17;71.11;101494.93;1794799;79;25666;-57
2021/04/28 02:54:16;;;;;;;20.68;14.18;;;;;;;2.18;71.49;101506.83;1802107;79;25650;-58
2021/04/28 02:56:45;;;;;;;20.10;15.23;;;;;;;2.20;71.82;101506.76;1780882;79;25681;-58
2021/04/28 02:59:14;;;;;;;16.60;12.70;;;;;;;2.26;72.25;101506.97;1805995;79;25598;-58
2021/04/28 03:01:43;;;;;;;22.55;14.75;;;;;;;2.29;72.29;101510.80;1805996;79;27529;-60
2021/04/28 03:04:11;;;;;;;20.68;12.85;;;;;;;2.34;72.32;101515.48;1781184;79;25737;-60
2021/04/28 03:06:58;;;;;;;19.48;12.93;;;;;;;2.41;72.41;101506.31;1784934;78;25701;-57
2021/04/28 03:09:27;;;;;;;22.37;13.58;;;;;;;2.52;72.82;101510.30;1805800;79;25535;-61
2021/04/28 03:11:55;;;;;;;20.02;12.20;;;;;;;2.57;72.51;101509.19;1786317;79;25726;-60
2021/04/28 03:14:26;;;;;;;19.77;14.00;;;;;;;2.66;72.57;101506.58;1774060;80;27513;-59
2021/04/28 03:16:55;;;;;;;18.60;13.18;;;;;;;2.74;72.42;101504.92;1773975;80;25866;-59
2021/04/28 03:19:25;;;;;;;18.42;13.55;;;;;;;2.81;72.47;101514.34;1748764;80;25744;-58
2021/04/28 03:21:53;;;;;;;16.65;12.10;;;;;;;2.91;72.56;101512.16;1748501;80;25776;-60
2021/04/28 03:24:22;;;;;;;24.47;14.30;;;;;;;2.98;72.41;101511.80;1774084;80;25606;-56
2021/04/28 03:26:54;;;;;;;21.55;14.38;;;;;;;3.07;72.33;101508.33;1774098;79;27754;-58
2021/04/28 03:29:23;;;;;;;27.02;17.30;;;;;;;3.11;71.90;101509.92;1750371;80;26121;-58
2021/04/28 03:31:51;;;;;;;28.60;17.42;;;;;;;3.16;71.93;101523.86;1773941;79;25744;-59
2021/04/28 03:34:20;;;;;;;21.90;13.95;;;;;;;3.19;71.79;101521.52;1774023;80;26408;-59
2021/04/28 03:36:48;;;;;;;26.45;15.00;;;;;;;3.19;71.54;101516.20;1773968;80;26173;-57
2021/04/28 03:39:24;;;;;;;28.95;15.75;;;;;;;3.21;71.72;101519.66;1771599;80;28556;-57
2021/04/28 03:41:53;;;;;;;37.73;17.57;;;;;;;3.20;71.65;101528.57;1789561;79;26121;-57
2021/04/28 03:44:22;;;;;;;32.65;16.40;;;;;;;3.24;72.07;101534.16;1803941;79;25697;-61
2021/04/28 03:47:05;;;;;;;23.92;15.65;;;;;;;3.34;71.98;101534.14;1843616;76;25572;-59
2021/04/28 03:49:36;;;;;;;21.95;15.38;;;;;;;3.29;71.84;101544.98;1814080;79;27419;-57
2021/04/28 03:52:04;;;;;;;25.05;15.03;;;;;;;3.30;71.60;101544.50;1801799;79;27531;-59
2021/04/28 03:54:32;;;;;;;28.50;16.62;;;;;;;3.27;71.16;101557.48;1789233;79;25713;-58
2021/04/28 03:57:03;;;;;;;34.05;20.45;;;;;;;3.21;71.00;101563.53;1801994;77;25625;-57
2021/04/28 03:59:32;;;;;;;33.55;19.73;;;;;;;3.17;71.06;101567.28;1781983;79;25723;-57
2021/04/28 04:02:00;;;;;;;34.83;17.55;;;;;;;3.17;71.56;101567.28;1782012;79;26065;-57
2021/04/28 04:04:31;;;;;;;39.60;19.70;;;;;;;3.16;71.25;101561.08;1778814;80;27687;-57
2021/04/28 04:07:20;;;;;;;30.88;17.67;;;;;;;3.21;72.13;101564.42;1755058;81;26137;-57
2021/04/28 04:09:58;;;;;;;34.45;17.70;;;;;;;3.35;71.89;101569.56;1843933;76;25588;-58
2021/04/28 04:12:26;;;;;;;33.10;15.63;;;;;;;3.38;72.14;101578.27;1812466;78;25671;-58
2021/04/28 04:14:58;;;;;;;24.00;14.80;;;;;;;3.49;72.43;101582.23;1812119;79;28491;-58
2021/04/28 04:17:27;;;;;;;21.33;14.35;;;;;;;3.59;72.77;101590.19;1811973;78;25801;-58
2021/04/28 04:19:59;;;;;;;27.62;16.32;;;;;;;3.70;72.52;101593.68;1760897;81;25664;-58
2021/04/28 04:22:37;;;;;;;23.02;14.63;;;;;;;3.75;72.60;101587.20;1750089;81;25755;-57
2021/04/28 04:25:09;;;;;;;25.57;15.45;;;;;;;3.81;72.54;101583.88;1716490;81;25718;-57
2021/04/28 04:27:38;;;;;;;33.53;16.48;;;;;;;3.82;72.45;101583.80;1762799;81;27537;-57
2021/04/28 04:30:25;;;;;;;24.25;16.07;;;;;;;3.85;72.29;101588.98;1762593;79;25719;-58
2021/04/28 04:33:05;;;;;;;24.90;16.97;;;;;;;3.95;72.59;101592.52;1762731;81;25647;-58
2021/04/28 04:35:52;;;;;;;55.28;19.55;;;;;;;4.04;72.42;101595.62;1755229;81;25721;-58
2021/04/28 04:38:29;;;;;;;41.18;19.98;;;;;;;4.17;72.34;101583.05;1731629;82;26516;-59
2021/04/28 04:41:07;;;;;;;34.05;17.62;;;;;;;4.28;71.81;101583.38;1844023;76;25579;-59
2021/04/28 04:43:38;;;;;;;27.02;16.73;;;;;;;4.31;71.77;101585.02;1814116;78;25673;-58
2021/04/28 04:46:10;;;;;;;35.55;20.30;;;;;;;4.31;71.39;101578.35;1814079;79;28456;-58
2021/04/28 04:48:38;;;;;;;35.60;17.52;;;;;;;4.31;71.00;101579.23;1814081;79;26202;-58
2021/04/28 04:51:06;;;;;;;29.40;17.80;;;;;;;4.33;71.13;101584.02;1779089;78;25671;-58
2021/04/28 04:53:34;;;;;;;31.68;16.70;;;;;;;4.36;70.92;101585.67;1763163;80;25764;-58
2021/04/28 04:56:03;;;;;;;25.43;15.63;;;;;;;4.39;70.83;101583.70;1763108;81;26057;-58
2021/04/28 04:58:31;;;;;;;36.55;16.87;;;;;;;4.46;70.72;101590.94;1763051;79;26721;-57
2021/04/28 05:01:19;;;;;;;25.55;16.25;;;;;;;4.52;70.70;101590.62;1763026;79;25682;-57
2021/04/28 05:03:47;;;;;;;32.33;17.17;;;;;;;4.62;70.81;101588.34;1763091;79;25703;-56
2021/04/28 05:06:16;;;;;;;25.77;17.02;;;;;;;4.76;71.04;101598.79;1789869;77;25737;-59
2021/04/28 05:08:50;;;;;;;33.18;16.90;;;;;;;4.82;70.51;101603.80;1816952;78;25635;-62
2021/04/28 05:11:20;;;;;;;25.97;16.80;;;;;;;4.86;70.29;101600.90;1816083;77;27995;-58
2021/04/28 05:13:48;;;;;;;30.15;17.50;;;;;;;4.92;70.60;101597.54;1813779;78;25676;-56
2021/04/28 05:16:16;;;;;;;29.90;19.60;;;;;;;4.96;70.21;101605.30;1814096;78;25740;-57
2021/04/28 05:18:44;;;;;;;32.08;20.68;;;;;;;5.01;70.35;101607.25;1813992;78;25631;-58
2021/04/28 05:21:12;;;;;;;24.32;17.42;;;;;;;5.07;70.36;101603.86;1819215;77;26146;-61
2021/04/28 05:23:43;;;;;;;34.78;16.97;;;;;;;5.07;70.07;101606.52;1847773;77;28881;-60
2021/04/28 05:26:25;;;;;;;32.67;19.00;;;;;;;5.10;70.12;101610.38;1767631;80;25703;-58
2021/04/28 05:28:53;;;;;;;31.42;18.02;;;;;;;5.14;70.21;101610.63;1802973;79;25706;-57
2021/04/28 05:31:21;;;;;;;32.50;18.65;;;;;;;5.22;70.39;101608.86;1802857;79;26217;-57
2021/04/28 05:33:50;;;;;;;40.70;19.70;;;;;;;5.32;70.90;101613.66;1802674;79;26358;-57
2021/04/28 05:36:18;;;;;;;42.50;19.52;;;;;;;5.46;70.78;101610.70;1802861;79;28596;-57
2021/04/28 05:38:47;;;;;;;31.73;19.57;;;;;;;5.62;70.91;101618.27;1768057;80;26196;-59
2021/04/28 05:41:15;;;;;;;29.63;19.42;;;;;;;5.74;70.78;101603.88;1793614;79;25819;-57
2021/04/28 05:43:43;;;;;;;28.50;16.85;;;;;;;5.89;70.65;101610.18;1804070;78;26091;-57
2021/04/28 05:46:15;;;;;;;28.05;18.27;;;;;;;6.03;70.52;101616.13;1834188;77;25692;-58
2021/04/28 05:48:42;;;;;;;28.83;17.70;;;;;;;6.12;70.22;101608.93;1836960;78;28007;-58
2021/04/28 05:51:11;;;;;;;31.00;18.95;;;;;;;6.19;69.47;101618.77;1806879;78;25951;-58
2021/04/28 05:53:40;;;;;;;37.13;20.68;;;;;;;6.28;69.61;101612.05;1814103;79;25753;-58
2021/04/28 05:56:08;;;;;;;43.63;21.42;;;;;;;6.39;69.50;101614.98;1814073;77;25683;-58
2021/04/28 05:58:37;;;;;;;40.85;21.52;;;;;;;6.50;69.31;101617.03;1814294;78;25641;-58
2021/04/28 06:01:06;;;;;;;54.85;21.73;;;;;;;6.55;68.94;101615.81;1814088;78;27512;-58
2021/04/28 06:03:34;;;;;;;42.88;19.57;;;;;;;6.67;68.53;101611.55;1814191;78;25717;-58
2021/04/28 06:06:02;;;;;;;42.62;19.15;;;;;;;6.71;67.96;101601.53;1814171;78;25650;-58
2021/04/28 06:08:30;;;;;;;31.48;18.32;;;;;;;6.71;67.82;101597.52;1814094;77;25654;-58
2021/04/28 06:10:58;;;;;;;36.93;17.60;;;;;;;6.69;67.59;101598.97;1748725;80;25810;-58
2021/04/28 06:13:26;;;;;;;28.47;17.75;;;;;;;6.66;67.93;101588.44;1774753;79;27337;-59
2021/04/28 06:15:54;;;;;;;30.95;17.70;;;;;;;6.69;67.96;101598.09;1742606;81;25704;-59
2021/04/28 06:18:22;;;;;;;32.85;19.42;;;;;;;6.72;67.37;101601.92;1713981;81;25639;-58
2021/04/28 06:20:50;;;;;;;31.87;19.65;;;;;;;6.76;67.24;101599.47;1756150;81;26627;-59
2021/04/28 06:23:18;;;;;;;41.60;23.80;;;;;;;6.83;67.22;101607.97;1756768;81;25697;-59
2021/04/28 06:25:49;;;;;;;46.98;22.87;;;;;;;6.93;67.05;101605.13;1739147;81;27549;-59
2021/04/28 06:28:16;;;;;;;37.15;19.80;;;;;;;7.05;67.18;101602.19;1757067;81;26582;-57
2021/04/28 06:30:44;;;;;;;35.45;22.02;;;;;;;7.17;66.78;101603.28;1798707;78;25555;-58
2021/04/28 06:33:12;;;;;;;48.65;21.45;;;;;;;7.28;66.05;101603.95;1742525;81;25735;-57
2021/04/28 06:35:40;;;;;;;29.10;19.12;;;;;;;7.33;66.02;101604.06;1752311;81;25703;-57
2021/04/28 06:38:15;;;;;;;31.17;16.42;;;;;;;7.42;66.06;101601.77;1748135;81;27534;-63
2021/04/28 06:40:49;;;;;;;47.67;14.65;;;;;;;7.51;65.96;101608.73;1764427;81;25807;-61
2021/04/28 06:43:18;;;;;;;19.80;12.33;;;;;;;7.70;66.34;101602.23;1783418;79;25847;-62
2021/04/28 06:45:48;;;;;;;21.93;12.58;;;;;;;7.90;65.51;101606.30;1779667;79;25867;-62
2021/04/28 06:48:16;;;;;;;25.97;12.43;;;;;;;8.02;64.90;101610.50;1783972;80;25710;-58
2021/04/28 06:50:44;;;;;;;21.15;12.50;;;;;;;8.16;64.14;101606.44;1796194;79;27521;-58
2021/04/28 06:53:12;;;;;;;23.00;12.55;;;;;;;8.33;64.34;101616.56;1743414;82;26148;-57
2021/04/28 06:55:39;;;;;;;17.52;11.55;;;;;;;8.56;64.15;101616.41;1743431;82;25750;-57
2021/04/28 06:58:07;;;;;;;19.17;10.55;;;;;;;8.81;63.89;101616.95;1766008;81;25774;-57
2021/04/28 07:00:35;;;;;;;13.93;9.70;;;;;;;8.95;61.65;101616.50;1743346;81;26578;-57
2021/04/28 07:03:03;;;;;;;20.40;10.32;;;;;;;9.06;60.79;101623.31;1766191;81;27518;-57
2021/04/28 07:05:32;;;;;;;18.30;10.30;;;;;;;9.16;60.66;101618.19;1737882;82;26144;-58
2021/04/28 07:08:00;;;;;;;23.57;11.00;;;;;;;9.32;60.10;101614.81;1728722;81;25731;-57
2021/04/28 07:10:28;;;;;;;21.20;9.85;;;;;;;9.42;60.00;101603.42;1729073;81;25741;-58
2021/04/28 07:12:57;;;;;;;18.48;10.23;;;;;;;9.49;59.25;101602.89;1762273;79;25676;-60
2021/04/28 07:15:26;;;;;;;15.85;8.50;;;;;;;9.56;58.63;101607.32;1762233;79;27455;-57
2021/04/28 07:17:54;;;;;;;18.05;8.75;;;;;;;9.56;57.08;101611.34;1761562;81;25827;-57
2021/04/28 07:20:22;;;;;;;16.62;8.68;;;;;;;9.63;57.01;101615.34;1749083;81;25676;-57
2021/04/28 07:22:50;;;;;;;10.48;5.03;;;;;;;9.65;55.37;101618.75;1759427;81;26105;-57
2021/04/28 07:25:19;;;;;;;18.62;4.35;;;;;;;9.66;50.15;101607.55;1798764;79;26067;-57
2021/04/28 07:27:47;;;;;;;14.58;3.90;;;;;;;9.63;49.41;101606.41;1793466;79;27520;-56
2021/04/28 07:30:18;;;;;;;4.30;2.12;;;;;;;9.59;45.97;101618.36;1786518;79;25588;-56
2021/04/28 07:32:46;;;;;;;12.47;4.00;;;;;;;9.50;44.73;101607.77;1786507;80;25729;-57
2021/04/28 07:35:15;;;;;;;5.78;3.10;;;;;;;9.43;45.86;101613.20;1786585;79;25695;-57
2021/04/28 07:37:43;;;;;;;18.85;4.05;;;;;;;9.43;46.08;101612.70;1799939;79;25812;-57
2021/04/28 07:40:12;;;;;;;9.48;3.27;;;;;;;9.49;46.08;101612.76;1803707;79;27048;-57
2021/04/28 07:42:41;;;;;;;20.60;3.00;;;;;;;9.54;47.25;101618.68;1804440;79;25688;-57
2021/04/28 07:45:11;;;;;;;11.75;3.47;;;;;;;9.61;45.67;101624.45;1813279;79;25469;-57
2021/04/28 07:47:39;;;;;;;8.63;3.80;;;;;;;9.67;46.04;101635.63;1813236;79;25685;-57
2021/04/28 07:50:10;;;;;;;23.67;3.37;;;;;;;9.76;44.31;101639.51;1811760;78;25741;-57
2021/04/28 07:52:39;;;;;;;9.40;3.12;;;;;;;9.68;44.41;101640.54;1813424;78;28374;-57
2021/04/28 07:55:10;;;;;;;9.40;4.08;;;;;;;9.67;44.25;101648.22;1813162;78;25771;-57
2021/04/28 07:57:38;;;;;;;6.37;4.22;;;;;;;9.76;43.81;101653.41;1813243;79;25764;-57
2021/04/28 08:00:09;;;;;;;7.37;3.42;;;;;;;9.77;43.70;101648.41;1813201;79;25743;-58
2021/04/28 08:02:41;;;;;;;12.95;4.10;;;;;;;9.77;45.49;101645.23;1813321;79;25670;-57
2021/04/28 08:05:11;;;;;;;8.45;4.10;;;;;;;9.94;46.12;101641.84;1802128;77;27532;-57
2021/04/28 08:07:39;;;;;;;11.70;4.05;;;;;;;10.11;45.19;101632.53;1781208;80;25460;-57
2021/04/28 08:10:10;;;;;;;8.23;4.17;;;;;;;10.24;44.78;101636.06;1781224;79;25833;-58
2021/04/28 08:12:38;;;;;;;9.70;4.55;;;;;;;10.28;45.00;101643.41;1764133;79;25581;-56
2021/04/28 08:15:09;;;;;;;13.43;4.42;;;;;;;10.30;44.43;101633.41;1766093;77;25726;-59
2021/04/28 08:17:40;;;;;;;9.90;4.03;;;;;;;10.28;44.78;101638.03;1746417;80;27525;-59
2021/04/28 08:20:11;;;;;;;16.82;2.58;;;;;;;10.17;45.62;101649.58;1746767;80;25627;-59
2021/04/28 08:22:40;;;;;;;28.07;3.95;;;;;;;9.84;44.19;101656.41;1728538;83;25711;-58
2021/04/28 08:25:12;;;;;;;8.73;3.22;;;;;;;9.52;45.12;101648.81;1781236;80;25748;-59
2021/04/28 08:27:40;;;;;;;17.32;3.27;;;;;;;9.37;46.53;101653.42;1781271;80;25761;-59
2021/04/28 08:30:12;;;;;;;10.58;3.72;;;;;;;9.31;47.06;101659.23;1781249;80;27609;-57
2021/04/28 08:32:40;;;;;;;5.10;3.12;;;;;;;9.24;47.44;101652.08;1781120;80;26205;-59
2021/04/28 08:35:14;;;;;;;11.35;3.75;;;;;;;9.22;47.21;101645.48;1781285;80;26277;-59
2021/04/28 08:37:45;;;;;;;10.78;3.33;;;;;;;9.17;47.53;101652.97;1781243;80;26125;-59
2021/04/28 08:40:16;;;;;;;8.98;2.92;;;;;;;9.17;47.35;101655.66;1780988;80;25781;-59
2021/04/28 08:42:44;;;;;;;4.20;2.80;;;;;;;9.16;47.21;101655.77;1776761;80;27529;-57
2021/04/28 08:45:14;;;;;;;7.78;3.33;;;;;;;9.06;47.75;101652.38;1776633;79;26356;-57
2021/04/28 08:47:43;;;;;;;7.08;3.62;;;;;;;8.99;48.70;101654.23;1776825;80;25680;-58
2021/04/28 08:50:13;;;;;;;12.10;3.50;;;;;;;8.97;48.76;101645.41;1776184;80;25836;-58
2021/04/28 08:52:41;;;;;;;10.38;3.55;;;;;;;8.92;49.08;101646.61;1775195;80;26164;-58
2021/04/28 08:55:11;;;;;;;15.48;3.85;;;;;;;8.93;49.31;101639.39;1775207;79;28421;-58
2021/04/28 08:57:41;;;;;;;10.25;3.55;;;;;;;9.01;49.49;101641.08;1751037;80;25846;-58
2021/04/28 09:00:11;;;;;;;4.92;2.85;;;;;;;9.12;48.89;101639.48;1775193;80;25701;-59
2021/04/28 09:02:56;;;;;;;18.67;4.17;;;;;;;9.11;48.68;101641.79;1775132;80;25620;-59
2021/04/28 09:05:24;;;;;;;;;;;;;;;9.18;49.00;101642.62;1784488;78;25725;-58
2021/04/28 09:07:52;;;;;;;5.12;3.70;;;;;;;9.27;48.66;101641.13;1828683;78;27698;-58
2021/04/28 09:10:24;;;;;;;6.80;3.75;;;;;;;9.35;48.88;101640.58;1776644;80;25624;-58
2021/04/28 09:13:06;;;;;;;16.77;4.30;;;;;;;9.45;48.80;101635.45;1841072;77;25730;-57
2021/04/28 09:15:45;;;;;;;4.60;3.35;;;;;;;9.57;47.64;101633.22;1789250;80;25680;-58
2021/04/28 09:18:17;;;;;;;12.90;4.10;;;;;;;9.66;47.74;101630.37;1841885;77;25723;-59
2021/04/28 09:21:03;;;;;;;7.65;3.90;;;;;;;9.82;47.80;101636.84;1785608;80;27534;-59
2021/04/28 09:23:50;;;;;;;11.45;3.75;;;;;;;9.90;47.38;101631.80;1789423;80;25684;-58
2021/04/28 09:26:33;;;;;;;12.75;4.42;;;;;;;9.89;47.16;101630.55;1767339;78;25784;-58
2021/04/28 09:29:05;;;;;;;10.40;4.20;;;;;;;9.86;47.05;101637.00;1776819;80;25757;-59
2021/04/28 09:31:34;;;;;;;7.70;3.40;;;;;;;9.96;47.13;101631.34;1789675;79;25613;-59
2021/04/28 09:34:09;;;;;;;9.70;4.30;;;;;;;10.06;47.20;101630.18;1808455;79;27520;-60
2021/04/28 09:36:47;;;;;;;8.78;3.67;;;;;;;10.12;46.82;101634.25;1764889;78;25811;-60
2021/04/28 09:39:20;;;;;;;8.55;3.85;;;;;;;10.18;46.54;101641.39;1797780;79;25840;-59
2021/04/28 09:41:51;;;;;;;10.25;4.70;;;;;;;10.16;46.72;101629.89;1746319;81;25990;-58
2021/04/28 09:44:31;;;;;;;8.68;4.10;;;;;;;10.20;47.03;101629.17;1756695;81;25844;-62
2021/04/28 09:47:15;;;;;;;9.35;4.80;;;;;;;10.28;46.84;101619.20;1801668;78;27321;-60
2021/04/28 09:49:56;;;;;;;19.23;5.10;;;;;;;10.29;46.88;101620.42;1788678;78;26165;-58
2021/04/28 09:52:36;;;;;;;11.33;3.87;;;;;;;10.36;46.55;101629.38;1830192;78;25531;-58
2021/04/28 09:55:08;;;;;;;10.03;4.87;;;;;;;10.18;46.43;101625.27;1791482;78;25548;-59
2021/04/28 09:57:43;;;;;;;8.25;4.40;;;;;;;10.08;46.42;101618.84;1784218;79;26024;-57
2021/04/28 10:00:30;;;;;;;6.97;4.17;;;;;;;10.02;46.64;101606.70;1799740;77;27486;-58
2021/04/28 10:03:07;;;;;;;6.40;4.35;;;;;;;10.00;46.76;101601.06;1814266;79;25722;-58
2021/04/28 10:05:43;;;;;;;12.88;4.75;;;;;;;10.10;46.68;101598.08;1814149;79;25746;-58
2021/04/28 10:08:35;;;;;;;10.80;4.15;;;;;;;10.20;46.54;101600.09;1814840;79;25850;-58
2021/04/28 10:11:04;;;;;;;12.50;4.15;;;;;;;10.28;46.20;101597.69;1746348;81;26256;-59
2021/04/28 10:13:44;;;;;;;15.08;4.28;;;;;;;10.42;46.29;101598.89;1803224;79;28407;-59
2021/04/28 10:16:14;;;;;;;10.88;4.37;;;;;;;10.49;46.53;101600.14;1783748;80;25661;-59
2021/04/28 10:18:43;;;;;;;7.85;4.75;;;;;;;10.53;45.81;101591.84;1784316;79;25799;-58
2021/04/28 10:21:11;;;;;;;6.95;4.47;;;;;;;10.54;45.91;101584.99;1784287;80;26431;-59
2021/04/28 10:23:40;;;;;;;9.28;5.00;;;;;;;10.51;45.95;101585.25;1784448;80;25768;-58
2021/04/28 10:26:08;;;;;;;10.10;4.50;;;;;;;10.47;46.13;101587.78;1784299;80;27531;-59
2021/04/28 10:28:37;;;;;;;11.73;4.72;;;;;;;10.50;46.22;101595.63;1784221;80;25663;-58
2021/04/28 10:31:06;;;;;;;9.60;5.35;;;;;;;10.45;46.13;101593.28;1784451;80;25709;-58
2021/04/28 10:33:37;;;;;;;10.93;6.00;;;;;;;10.43;46.60;101594.38;1784181;80;26348;-59
2021/04/28 10:36:09;;;;;;;17.92;5.90;;;;;;;10.38;46.62;101585.78;1780385;80;26341;-60
2021/04/28 10:38:37;;;;;;;14.35;5.65;;;;;;;10.30;46.85;101591.72;1784311;80;27433;-58
2021/04/28 10:41:05;;;;;;;13.15;5.28;;;;;;;10.31;47.25;101587.56;1761963;78;26253;-58
2021/04/28 10:43:38;;;;;;;16.95;6.22;;;;;;;10.34;47.31;101587.81;1743424;82;25717;-57
2021/04/28 10:46:21;;;;;;;12.28;5.67;;;;;;;10.27;47.77;101598.16;1766107;81;26427;-58
2021/04/28 10:48:52;;;;;;;7.75;5.40;;;;;;;10.17;47.55;101596.66;1761638;81;25666;-58
2021/04/28 10:51:39;;;;;;;14.13;5.75;;;;;;;10.16;47.39;101596.27;1722619;81;27534;-65
2021/04/28 10:54:27;;;;;;;9.65;5.35;;;;;;;10.15;47.43;101591.02;1728610;81;25720;-57
2021/04/28 10:56:59;;;;;;;;;;;;;;;10.11;48.07;101585.48;1730993;83;25785;-58
2021/04/28 10:59:37;;;;;;;17.50;5.60;;;;;;;10.05;47.62;101586.79;1780826;80;25808;-57
2021/04/28 11:02:09;;;;;;;9.00;5.30;;;;;;;9.91;47.77;101589.14;1781224;80;26116;-58
2021/04/28 11:04:38;;;;;;;8.05;4.72;;;;;;;9.90;48.07;101590.61;1780531;79;28478;-58
2021/04/28 11:07:08;;;;;;;14.95;4.67;;;;;;;9.85;48.05;101595.85;1808458;78;25684;-58
2021/04/28 11:09:37;;;;;;;13.30;5.42;;;;;;;9.85;48.38;101589.59;1813235;79;25760;-58
2021/04/28 11:12:05;;;;;;;9.08;5.10;;;;;;;9.85;47.92;101590.47;1836180;77;26436;-58
2021/04/28 11:14:35;;;;;;;15.28;4.92;;;;;;;9.81;48.12;101590.81;1846628;77;26084;-58
2021/04/28 11:17:19;;;;;;;7.20;5.33;;;;;;;9.71;48.40;101586.56;1816728;77;27696;-58
2021/04/28 11:19:51;;;;;;;9.80;5.58;;;;;;;9.68;48.75;101587.66;1846583;77;25735;-58
2021/04/28 11:22:30;;;;;;;10.58;5.20;;;;;;;9.66;49.00;101586.89;1777547;79;26368;-57
2021/04/28 11:25:17;;;;;;;11.80;6.45;;;;;;;9.65;49.22;101591.89;1777629;80;25668;-58
2021/04/28 11:28:15;;;;;;;10.43;6.40;;;;;;;9.75;49.07;101575.11;1790232;80;25647;-57
2021/04/28 11:30:52;;;;;;;12.80;7.67;;;;;;;9.80;49.26;101570.27;1845608;77;28533;-58
2021/04/28 11:33:31;;;;;;;19.20;8.75;;;;;;;9.84;49.11;101569.06;1846233;77;26075;-59
2021/04/28 11:36:06;;;;;;;12.53;6.83;;;;;;;9.86;49.15;101558.57;1777520;79;25765;-58
2021/04/28 11:38:39;;;;;;;11.30;6.12;;;;;;;9.84;49.67;101564.56;1789898;80;26430;-57
2021/04/28 11:41:16;;;;;;;16.20;6.62;;;;;;;9.86;49.95;101559.07;1835092;77;25325;-58